Viimsi — ES2084 — position and weather

sailwx.info

Track history (hours):
 
Tides and Currents Weather Stations Pressure Air Temp Water Temp Dewpoint Dewpoint Depression Visibility Wind Speed Wind Dir Waves Ship Positions

Viimsi

Last reported at 2015-Mar-29 20:34 UTC. Time now 2015-Mar-29 20:51 UTC.
Position N 59°28' E 024°39'.

Length 78 m; draft 4.4 m.

Type: Ship. MMSI: 276297000.

Date/timePositionNaut miles runAvg speedWind from/ knotsBaromVisibWave heightAir tempDewpointWater temp
2015-Mar-29 20:34N 59°28' E 024°39'0 0.0
2015-Mar-29 19:34N 59°28' E 024°39'2 1.7
2015-Mar-29 18:34N 59°28' E 024°36'2 2.5
2015-Mar-29 17:33N 59°29' E 024°31'0 0.0
2015-Mar-29 16:33N 59°29' E 024°31'0 0.0
2015-Mar-29 15:33N 59°29' E 024°31'1 0.6
2015-Mar-29 14:34N 59°29' E 024°32'0 0.0
2015-Mar-29 13:33N 59°29' E 024°32'0 0.0
2015-Mar-29 12:34N 59°29' E 024°32'0 0.1
2015-Mar-29 11:34N 59°29' E 024°32'4 3.7
2015-Mar-29 10:34N 59°28' E 024°39'0 0.1
2015-Mar-29 09:32N 59°28' E 024°39'0 0.0
2015-Mar-29 08:28N 59°28' E 024°39'0 0.0
2015-Mar-29 07:34N 59°28' E 024°39'3 3.3
2015-Mar-29 06:34N 59°29' E 024°33'1 0.8
2015-Mar-29 05:34N 59°29' E 024°31'0 0.0
2015-Mar-29 04:34N 59°29' E 024°31'0 0.0
2015-Mar-29 03:33N 59°29' E 024°31'0 0.0
2015-Mar-29 02:34N 59°29' E 024°31'0 0.0
2015-Mar-29 01:31N 59°29' E 024°31'4 4.5
2015-Mar-29 00:34N 59°30' E 024°40'3 2.8
2015-Mar-28 23:34N 59°28' E 024°43'0 0.0
2015-Mar-28 22:32N 59°28' E 024°43'0 0.0
2015-Mar-28 21:29N 59°28' E 024°43'1 0.8
2015-Mar-28 20:33N 59°28' E 024°44'3 0.4
2015-Mar-28 14:24N 59°28' E 024°39'0 0.0
2015-Mar-28 08:24N 59°28' E 024°39'0 0.0
2015-Mar-28 05:18N 59°28' E 024°39'0 0.0
2015-Mar-28 04:30N 59°28' E 024°39'0 0.0
2015-Mar-28 03:30N 59°28' E 024°39'0 0.0
2015-Mar-28 02:18N 59°28' E 024°39'0 0.0
2015-Mar-28 01:18N 59°28' E 024°39'0 0.0
2015-Mar-28 00:21N 59°28' E 024°39'0 0.0
2015-Mar-27 21:30N 59°28' E 024°39'3 3.2
2015-Mar-27 20:33N 59°30' E 024°43'3 3.0
2015-Mar-27 19:33N 59°30' E 024°49'0 0.0
2015-Mar-27 18:29N 59°30' E 024°49'0 0.0
2015-Mar-27 17:32N 59°30' E 024°49'0 0.0
2015-Mar-27 16:32N 59°30' E 024°49'0 0.0
2015-Mar-27 15:32N 59°30' E 024°49'0 0.0
2015-Mar-27 14:32N 59°30' E 024°49'0 0.0
2015-Mar-27 13:32N 59°30' E 024°49'0 0.0
2015-Mar-27 12:33N 59°30' E 024°49'1 0.8
2015-Mar-27 11:33N 59°29' E 024°48'3 3.0
2015-Mar-27 10:33N 59°28' E 024°43'0 0.0
2015-Mar-27 09:33N 59°28' E 024°43'0 0.0
2015-Mar-27 08:33N 59°28' E 024°43'0 0.0
2015-Mar-27 07:33N 59°28' E 024°43'0 0.0
2015-Mar-27 06:33N 59°28' E 024°43'0 0.0
2015-Mar-27 05:33N 59°28' E 024°43'0 0.0
2015-Mar-27 04:33N 59°28' E 024°43'0 0.0
2015-Mar-27 03:33N 59°28' E 024°43'0 0.0
2015-Mar-27 02:33N 59°28' E 024°43'0 0.0
2015-Mar-27 01:33N 59°28' E 024°43'0 0.0
2015-Mar-27 00:33N 59°28' E 024°43'0 0.0
2015-Mar-26 23:33N 59°28' E 024°43'0 0.0
2015-Mar-26 22:33N 59°28' E 024°43'0 0.0
2015-Mar-26 21:30N 59°28' E 024°43'0 0.0
2015-Mar-26 20:33N 59°28' E 024°43'0 0.0
2015-Mar-26 19:33N 59°28' E 024°43'0 0.0
2015-Mar-26 18:33N 59°28' E 024°43'0 0.0
2015-Mar-26 17:33N 59°28' E 024°43'0 0.0
2015-Mar-26 16:33N 59°28' E 024°43'0 0.0
2015-Mar-26 15:33N 59°28' E 024°43'0 0.0
2015-Mar-26 14:33N 59°28' E 024°43'0 0.0
2015-Mar-26 13:33N 59°28' E 024°43'0 0.0
2015-Mar-26 12:30N 59°28' E 024°43'0 0.0
2015-Mar-26 11:33N 59°28' E 024°43'0 0.0
2015-Mar-26 10:33N 59°28' E 024°43'2 2.5
2015-Mar-26 09:33N 59°30' E 024°42'5 4.3
2015-Mar-26 08:18N 59°29' E 024°31'0 0.0
2015-Mar-26 07:29N 59°29' E 024°31'0 0.0
2015-Mar-26 06:32N 59°29' E 024°31'0 0.0
2015-Mar-26 05:33N 59°29' E 024°31'3 3.0
2015-Mar-26 04:33N 59°28' E 024°37'1 1.2
2015-Mar-26 03:33N 59°27' E 024°38'0 0.0
2015-Mar-26 02:33N 59°27' E 024°38'0 0.0
2015-Mar-26 01:33N 59°27' E 024°38'0 0.2
2015-Mar-26 00:33N 59°27' E 024°38'4 3.8
2015-Mar-25 23:33N 59°29' E 024°44'1 1.5
2015-Mar-25 22:34N 59°28' E 024°43'0 0.0
2015-Mar-25 21:33N 59°28' E 024°43'0 0.0
2015-Mar-25 20:33N 59°28' E 024°43'0 0.0
2015-Mar-25 19:33N 59°28' E 024°43'0 0.4
2015-Mar-25 18:33N 59°28' E 024°44'3 3.5
2015-Mar-25 17:33N 59°30' E 024°49'0 0.0
2015-Mar-25 16:33N 59°30' E 024°49'0 0.0
2015-Mar-25 15:33N 59°30' E 024°49'0 0.0
2015-Mar-25 14:33N 59°30' E 024°49'0 0.0
2015-Mar-25 13:33N 59°30' E 024°49'0 0.0
2015-Mar-25 12:33N 59°30' E 024°49'0 0.0
2015-Mar-25 11:33N 59°30' E 024°49'2 2.3
2015-Mar-25 10:33N 59°29' E 024°45'2 1.7
2015-Mar-25 09:33N 59°28' E 024°42'0 0.0
2015-Mar-25 08:33N 59°28' E 024°42'0 0.0
2015-Mar-25 07:33N 59°28' E 024°42'0 0.0
2015-Mar-25 06:33N 59°28' E 024°42'3 2.8
2015-Mar-25 05:33N 59°29' E 024°38'1 1.3
2015-Mar-25 04:33N 59°28' E 024°39'0 0.0
2015-Mar-25 03:33N 59°28' E 024°39'0 0.0
2015-Mar-25 02:33N 59°28' E 024°39'0 0.0
2015-Mar-25 01:33N 59°28' E 024°39'0 0.0
2015-Mar-25 00:33N 59°28' E 024°39'0 0.0
2015-Mar-24 23:33N 59°28' E 024°39'0 0.0
2015-Mar-24 22:33N 59°28' E 024°39'0 0.0
2015-Mar-24 21:33N 59°28' E 024°39'0 0.0
2015-Mar-24 20:33N 59°28' E 024°39'0 0.0
2015-Mar-24 19:27N 59°28' E 024°39'0 0.0
2015-Mar-24 18:13N 59°28' E 024°39'0 0.0
2015-Mar-24 17:30N 59°28' E 024°39'0 0.0
2015-Mar-24 16:33N 59°28' E 024°39'0 0.0
2015-Mar-24 15:32N 59°28' E 024°39'3 3.5
2015-Mar-24 14:33N 59°31' E 024°38'8 7.6
2015-Mar-24 13:34N 59°38' E 024°45'3 2.9
2015-Mar-24 12:31N 59°36' E 024°49'0 0.0
2015-Mar-24 11:28N 59°36' E 024°49'0 0.0
2015-Mar-24 10:28N 59°36' E 024°49'0 0.0
2015-Mar-24 09:28N 59°36' E 024°49'1 0.6
2015-Mar-24 08:31N 59°35' E 024°49'0 0.0
2015-Mar-24 07:28N 59°35' E 024°49'2 1.7
2015-Mar-24 06:33N 59°36' E 024°47'5 5.2
2015-Mar-24 05:33N 59°31' E 024°45'4 3.7
2015-Mar-24 04:33N 59°28' E 024°43'0 0.0
2015-Mar-24 03:30N 59°28' E 024°43'0 0.0
2015-Mar-24 02:33N 59°28' E 024°43'0 0.0
2015-Mar-24 01:33N 59°28' E 024°43'0 0.0
2015-Mar-24 00:30N 59°28' E 024°43'0 0.0
2015-Mar-23 23:33N 59°28' E 024°43'0 0.0
2015-Mar-23 22:30N 59°28' E 024°43'0 0.0
2015-Mar-23 21:33N 59°28' E 024°43'0 0.0
2015-Mar-23 20:33N 59°28' E 024°43'0 0.0
2015-Mar-23 19:30N 59°28' E 024°43'0 0.0
2015-Mar-23 18:33N 59°28' E 024°43'0 0.0
2015-Mar-23 17:33N 59°28' E 024°43'0 0.0
2015-Mar-23 16:33N 59°28' E 024°43'0 0.0
2015-Mar-23 15:33N 59°28' E 024°43'1 0.8
2015-Mar-23 14:33N 59°28' E 024°44'1 1.4
2015-Mar-23 13:33N 59°27' E 024°47'0 0.0
2015-Mar-23 12:29N 59°27' E 024°47'0 0.0
2015-Mar-23 11:32N 59°27' E 024°47'0 0.0
2015-Mar-23 10:23N 59°27' E 024°47'1 1.3
2015-Mar-23 09:33N 59°28' E 024°45'1 1.1
2015-Mar-23 08:26N 59°28' E 024°43'0 0.0
2015-Mar-23 07:32N 59°28' E 024°43'0 0.0
2015-Mar-23 06:32N 59°28' E 024°43'0 0.0
2015-Mar-23 05:32N 59°28' E 024°43'0 0.0
2015-Mar-23 04:32N 59°28' E 024°43'0 0.0
2015-Mar-23 03:32N 59°28' E 024°43'0 0.0
2015-Mar-23 02:26N 59°28' E 024°43'0 0.0
2015-Mar-23 01:32N 59°28' E 024°43'0 0.0
2015-Mar-23 00:32N 59°28' E 024°43'0 0.0
2015-Mar-22 23:32N 59°28' E 024°43'0 0.0
2015-Mar-22 22:33N 59°28' E 024°43'1 0.7
2015-Mar-22 21:33N 59°28' E 024°44'9 9.3
2015-Mar-22 20:33N 59°37' E 024°41'9 8.7
2015-Mar-22 19:33N 59°32' E 024°56'0 0.1
2015-Mar-22 14:19N 59°32' E 024°56'810.5
2015-Mar-22 13:34N 59°37' E 024°44'9 9.4
2015-Mar-22 12:33N 59°28' E 024°47'1 1.2
2015-Mar-22 11:33N 59°27' E 024°46'0 0.0
2015-Mar-22 10:33N 59°27' E 024°46'0 0.0
2015-Mar-22 09:30N 59°27' E 024°46'1 1.2
2015-Mar-22 08:33N 59°28' E 024°45'0 0.1
2015-Mar-22 07:26N 59°28' E 024°45'0 0.0
2015-Mar-22 06:32N 59°28' E 024°45'0 0.0
2015-Mar-22 05:29N 59°28' E 024°45'0 0.0
2015-Mar-22 04:32N 59°28' E 024°45'0 0.0
2015-Mar-22 03:32N 59°28' E 024°45'0 0.0
2015-Mar-22 02:32N 59°28' E 024°45'0 0.0
2015-Mar-22 01:33N 59°28' E 024°45'6 6.2
2015-Mar-22 00:33N 59°30' E 024°34'2 2.0
2015-Mar-21 23:33N 59°31' E 024°30'0 0.0
2015-Mar-21 22:33N 59°31' E 024°30'0 0.0
2015-Mar-21 21:33N 59°31' E 024°30'0 0.0
2015-Mar-21 20:33N 59°31' E 024°30'5 4.6
2015-Mar-21 19:33N 59°28' E 024°38'1 0.6
2015-Mar-21 18:31N 59°28' E 024°39'0 0.0
2015-Mar-21 17:21N 59°28' E 024°39'0 0.0
2015-Mar-21 16:32N 59°28' E 024°39'0 0.0
2015-Mar-21 15:33N 59°28' E 024°39'0 0.0
2015-Mar-21 14:33N 59°28' E 024°39'5 4.7
2015-Mar-21 13:33N 59°30' E 024°30'  
Track history (hours):
 
Tides and Currents Weather Stations Pressure Air Temp Water Temp Dewpoint Dewpoint Depression Visibility Wind Speed Wind Dir Waves Ship Positions

Viimsi

Last reported at 2015-Mar-29 20:34 UTC. Time now 2015-Mar-29 20:51 UTC.
Position N 59°28' E 024°39'.

Length 78 m; draft 4.4 m.

Type: Ship. MMSI: 276297000.

Date/timePositionNaut miles runAvg speedWind from/ knotsBaromVisibWave heightAir tempDewpointWater temp
2015-Mar-29 20:34N 59°28' E 024°39'0 0.0
2015-Mar-29 19:34N 59°28' E 024°39'2 1.7
2015-Mar-29 18:34N 59°28' E 024°36'2 2.5
2015-Mar-29 17:33N 59°29' E 024°31'0 0.0
2015-Mar-29 16:33N 59°29' E 024°31'0 0.0
2015-Mar-29 15:33N 59°29' E 024°31'1 0.6
2015-Mar-29 14:34N 59°29' E 024°32'0 0.0
2015-Mar-29 13:33N 59°29' E 024°32'0 0.0
2015-Mar-29 12:34N 59°29' E 024°32'0 0.1
2015-Mar-29 11:34N 59°29' E 024°32'4 3.7
2015-Mar-29 10:34N 59°28' E 024°39'0 0.1
2015-Mar-29 09:32N 59°28' E 024°39'0 0.0
2015-Mar-29 08:28N 59°28' E 024°39'0 0.0
2015-Mar-29 07:34N 59°28' E 024°39'3 3.3
2015-Mar-29 06:34N 59°29' E 024°33'1 0.8
2015-Mar-29 05:34N 59°29' E 024°31'0 0.0
2015-Mar-29 04:34N 59°29' E 024°31'0 0.0
2015-Mar-29 03:33N 59°29' E 024°31'0 0.0
2015-Mar-29 02:34N 59°29' E 024°31'0 0.0
2015-Mar-29 01:31N 59°29' E 024°31'4 4.5
2015-Mar-29 00:34N 59°30' E 024°40'3 2.8
2015-Mar-28 23:34N 59°28' E 024°43'0 0.0
2015-Mar-28 22:32N 59°28' E 024°43'0 0.0
2015-Mar-28 21:29N 59°28' E 024°43'1 0.8
2015-Mar-28 20:33N 59°28' E 024°44'3 0.4
2015-Mar-28 14:24N 59°28' E 024°39'0 0.0
2015-Mar-28 08:24N 59°28' E 024°39'0 0.0
2015-Mar-28 05:18N 59°28' E 024°39'0 0.0
2015-Mar-28 04:30N 59°28' E 024°39'0 0.0
2015-Mar-28 03:30N 59°28' E 024°39'0 0.0
2015-Mar-28 02:18N 59°28' E 024°39'0 0.0
2015-Mar-28 01:18N 59°28' E 024°39'0 0.0
2015-Mar-28 00:21N 59°28' E 024°39'0 0.0
2015-Mar-27 21:30N 59°28' E 024°39'3 3.2
2015-Mar-27 20:33N 59°30' E 024°43'3 3.0
2015-Mar-27 19:33N 59°30' E 024°49'0 0.0
2015-Mar-27 18:29N 59°30' E 024°49'0 0.0
2015-Mar-27 17:32N 59°30' E 024°49'0 0.0
2015-Mar-27 16:32N 59°30' E 024°49'0 0.0
2015-Mar-27 15:32N 59°30' E 024°49'0 0.0
2015-Mar-27 14:32N 59°30' E 024°49'0 0.0
2015-Mar-27 13:32N 59°30' E 024°49'0 0.0
2015-Mar-27 12:33N 59°30' E 024°49'1 0.8
2015-Mar-27 11:33N 59°29' E 024°48'3 3.0
2015-Mar-27 10:33N 59°28' E 024°43'0 0.0
2015-Mar-27 09:33N 59°28' E 024°43'0 0.0
2015-Mar-27 08:33N 59°28' E 024°43'0 0.0
2015-Mar-27 07:33N 59°28' E 024°43'0 0.0
2015-Mar-27 06:33N 59°28' E 024°43'0 0.0
2015-Mar-27 05:33N 59°28' E 024°43'0 0.0
2015-Mar-27 04:33N 59°28' E 024°43'0 0.0
2015-Mar-27 03:33N 59°28' E 024°43'0 0.0
2015-Mar-27 02:33N 59°28' E 024°43'0 0.0
2015-Mar-27 01:33N 59°28' E 024°43'0 0.0
2015-Mar-27 00:33N 59°28' E 024°43'0 0.0
2015-Mar-26 23:33N 59°28' E 024°43'0 0.0
2015-Mar-26 22:33N 59°28' E 024°43'0 0.0
2015-Mar-26 21:30N 59°28' E 024°43'0 0.0
2015-Mar-26 20:33N 59°28' E 024°43'0 0.0
2015-Mar-26 19:33N 59°28' E 024°43'0 0.0
2015-Mar-26 18:33N 59°28' E 024°43'0 0.0
2015-Mar-26 17:33N 59°28' E 024°43'0 0.0
2015-Mar-26 16:33N 59°28' E 024°43'0 0.0
2015-Mar-26 15:33N 59°28' E 024°43'0 0.0
2015-Mar-26 14:33N 59°28' E 024°43'0 0.0
2015-Mar-26 13:33N 59°28' E 024°43'0 0.0
2015-Mar-26 12:30N 59°28' E 024°43'0 0.0
2015-Mar-26 11:33N 59°28' E 024°43'0 0.0
2015-Mar-26 10:33N 59°28' E 024°43'2 2.5
2015-Mar-26 09:33N 59°30' E 024°42'5 4.3
2015-Mar-26 08:18N 59°29' E 024°31'0 0.0
2015-Mar-26 07:29N 59°29' E 024°31'0 0.0
2015-Mar-26 06:32N 59°29' E 024°31'0 0.0
2015-Mar-26 05:33N 59°29' E 024°31'3 3.0
2015-Mar-26 04:33N 59°28' E 024°37'1 1.2
2015-Mar-26 03:33N 59°27' E 024°38'0 0.0
2015-Mar-26 02:33N 59°27' E 024°38'0 0.0
2015-Mar-26 01:33N 59°27' E 024°38'0 0.2
2015-Mar-26 00:33N 59°27' E 024°38'4 3.8
2015-Mar-25 23:33N 59°29' E 024°44'1 1.5
2015-Mar-25 22:34N 59°28' E 024°43'0 0.0
2015-Mar-25 21:33N 59°28' E 024°43'0 0.0
2015-Mar-25 20:33N 59°28' E 024°43'0 0.0
2015-Mar-25 19:33N 59°28' E 024°43'0 0.4
2015-Mar-25 18:33N 59°28' E 024°44'3 3.5
2015-Mar-25 17:33N 59°30' E 024°49'0 0.0
2015-Mar-25 16:33N 59°30' E 024°49'0 0.0
2015-Mar-25 15:33N 59°30' E 024°49'0 0.0
2015-Mar-25 14:33N 59°30' E 024°49'0 0.0
2015-Mar-25 13:33N 59°30' E 024°49'0 0.0
2015-Mar-25 12:33N 59°30' E 024°49'0 0.0
2015-Mar-25 11:33N 59°30' E 024°49'2 2.3
2015-Mar-25 10:33N 59°29' E 024°45'2 1.7
2015-Mar-25 09:33N 59°28' E 024°42'0 0.0
2015-Mar-25 08:33N 59°28' E 024°42'0 0.0
2015-Mar-25 07:33N 59°28' E 024°42'0 0.0
2015-Mar-25 06:33N 59°28' E 024°42'3 2.8
2015-Mar-25 05:33N 59°29' E 024°38'1 1.3
2015-Mar-25 04:33N 59°28' E 024°39'0 0.0
2015-Mar-25 03:33N 59°28' E 024°39'0 0.0
2015-Mar-25 02:33N 59°28' E 024°39'0 0.0
2015-Mar-25 01:33N 59°28' E 024°39'0 0.0
2015-Mar-25 00:33N 59°28' E 024°39'0 0.0
2015-Mar-24 23:33N 59°28' E 024°39'0 0.0
2015-Mar-24 22:33N 59°28' E 024°39'0 0.0
2015-Mar-24 21:33N 59°28' E 024°39'0 0.0
2015-Mar-24 20:33N 59°28' E 024°39'0 0.0
2015-Mar-24 19:27N 59°28' E 024°39'0 0.0
2015-Mar-24 18:13N 59°28' E 024°39'0 0.0
2015-Mar-24 17:30N 59°28' E 024°39'0 0.0
2015-Mar-24 16:33N 59°28' E 024°39'0 0.0
2015-Mar-24 15:32N 59°28' E 024°39'3 3.5
2015-Mar-24 14:33N 59°31' E 024°38'8 7.6
2015-Mar-24 13:34N 59°38' E 024°45'3 2.9
2015-Mar-24 12:31N 59°36' E 024°49'0 0.0
2015-Mar-24 11:28N 59°36' E 024°49'0 0.0
2015-Mar-24 10:28N 59°36' E 024°49'0 0.0
2015-Mar-24 09:28N 59°36' E 024°49'1 0.6
2015-Mar-24 08:31N 59°35' E 024°49'0 0.0
2015-Mar-24 07:28N 59°35' E 024°49'2 1.7
2015-Mar-24 06:33N 59°36' E 024°47'5 5.2
2015-Mar-24 05:33N 59°31' E 024°45'4 3.7
2015-Mar-24 04:33N 59°28' E 024°43'0 0.0
2015-Mar-24 03:30N 59°28' E 024°43'0 0.0
2015-Mar-24 02:33N 59°28' E 024°43'0 0.0
2015-Mar-24 01:33N 59°28' E 024°43'0 0.0
2015-Mar-24 00:30N 59°28' E 024°43'0 0.0
2015-Mar-23 23:33N 59°28' E 024°43'0 0.0
2015-Mar-23 22:30N 59°28' E 024°43'0 0.0
2015-Mar-23 21:33N 59°28' E 024°43'0 0.0
2015-Mar-23 20:33N 59°28' E 024°43'0 0.0
2015-Mar-23 19:30N 59°28' E 024°43'0 0.0
2015-Mar-23 18:33N 59°28' E 024°43'0 0.0
2015-Mar-23 17:33N 59°28' E 024°43'0 0.0
2015-Mar-23 16:33N 59°28' E 024°43'0 0.0
2015-Mar-23 15:33N 59°28' E 024°43'1 0.8
2015-Mar-23 14:33N 59°28' E 024°44'1 1.4
2015-Mar-23 13:33N 59°27' E 024°47'0 0.0
2015-Mar-23 12:29N 59°27' E 024°47'0 0.0
2015-Mar-23 11:32N 59°27' E 024°47'0 0.0
2015-Mar-23 10:23N 59°27' E 024°47'1 1.3
2015-Mar-23 09:33N 59°28' E 024°45'1 1.1
2015-Mar-23 08:26N 59°28' E 024°43'0 0.0
2015-Mar-23 07:32N 59°28' E 024°43'0 0.0
2015-Mar-23 06:32N 59°28' E 024°43'0 0.0
2015-Mar-23 05:32N 59°28' E 024°43'0 0.0
2015-Mar-23 04:32N 59°28' E 024°43'0 0.0
2015-Mar-23 03:32N 59°28' E 024°43'0 0.0
2015-Mar-23 02:26N 59°28' E 024°43'0 0.0
2015-Mar-23 01:32N 59°28' E 024°43'0 0.0
2015-Mar-23 00:32N 59°28' E 024°43'0 0.0
2015-Mar-22 23:32N 59°28' E 024°43'0 0.0
2015-Mar-22 22:33N 59°28' E 024°43'1 0.7
2015-Mar-22 21:33N 59°28' E 024°44'9 9.3
2015-Mar-22 20:33N 59°37' E 024°41'9 8.7
2015-Mar-22 19:33N 59°32' E 024°56'0 0.1
2015-Mar-22 14:19N 59°32' E 024°56'810.5
2015-Mar-22 13:34N 59°37' E 024°44'9 9.4
2015-Mar-22 12:33N 59°28' E 024°47'1 1.2
2015-Mar-22 11:33N 59°27' E 024°46'0 0.0
2015-Mar-22 10:33N 59°27' E 024°46'0 0.0
2015-Mar-22 09:30N 59°27' E 024°46'1 1.2
2015-Mar-22 08:33N 59°28' E 024°45'0 0.1
2015-Mar-22 07:26N 59°28' E 024°45'0 0.0
2015-Mar-22 06:32N 59°28' E 024°45'0 0.0
2015-Mar-22 05:29N 59°28' E 024°45'0 0.0
2015-Mar-22 04:32N 59°28' E 024°45'0 0.0
2015-Mar-22 03:32N 59°28' E 024°45'0 0.0
2015-Mar-22 02:32N 59°28' E 024°45'0 0.0
2015-Mar-22 01:33N 59°28' E 024°45'6 6.2
2015-Mar-22 00:33N 59°30' E 024°34'2 2.0
2015-Mar-21 23:33N 59°31' E 024°30'0 0.0
2015-Mar-21 22:33N 59°31' E 024°30'0 0.0
2015-Mar-21 21:33N 59°31' E 024°30'0 0.0
2015-Mar-21 20:33N 59°31' E 024°30'5 4.6
2015-Mar-21 19:33N 59°28' E 024°38'1 0.6
2015-Mar-21 18:31N 59°28' E 024°39'0 0.0
2015-Mar-21 17:21N 59°28' E 024°39'0 0.0
2015-Mar-21 16:32N 59°28' E 024°39'0 0.0
2015-Mar-21 15:33N 59°28' E 024°39'0 0.0
2015-Mar-21 14:33N 59°28' E 024°39'5 4.7
2015-Mar-21 13:33N 59°30' E 024°30'  

Dump ship's entire track history